sensor_id;sensor_type;location;lat;lon;timestamp;temperature;humidity
25320;DHT22;13256;49.012;8.610;2022-11-15T00:02:45;8.10;99.90
25320;DHT22;13256;49.012;8.610;2022-11-15T00:05:41;8.00;99.90
25320;DHT22;13256;49.012;8.610;2022-11-15T00:09:02;8.00;99.90
25320;DHT22;13256;49.012;8.610;2022-11-15T00:18:02;8.00;99.90
25320;DHT22;13256;49.012;8.610;2022-11-15T00:21:02;8.00;99.90
25320;DHT22;13256;49.012;8.610;2022-11-15T00:25:10;8.00;99.90
25320;DHT22;13256;49.012;8.610;2022-11-15T00:27:57;8.00;99.90
25320;DHT22;13256;49.012;8.610;2022-11-15T00:30:45;7.90;99.90
25320;DHT22;13256;49.012;8.610;2022-11-15T00:37:12;8.00;99.90
25320;DHT22;13256;49.012;8.610;2022-11-15T00:39:58;7.90;99.90
25320;DHT22;13256;49.012;8.610;2022-11-15T00:42:48;7.90;99.90
25320;DHT22;13256;49.012;8.610;2022-11-15T00:45:34;7.90;99.90
25320;DHT22;13256;49.012;8.610;2022-11-15T00:48:23;7.90;99.90
25320;DHT22;13256;49.012;8.610;2022-11-15T00:51:33;7.90;99.90
25320;DHT22;13256;49.012;8.610;2022-11-15T00:54:26;7.90;99.90
25320;DHT22;13256;49.012;8.610;2022-11-15T00:57:44;7.80;99.90
25320;DHT22;13256;49.012;8.610;2022-11-15T01:00:30;7.80;99.90
25320;DHT22;13256;49.012;8.610;2022-11-15T01:03:20;7.90;99.90
25320;DHT22;13256;49.012;8.610;2022-11-15T01:06:15;7.90;99.90
25320;DHT22;13256;49.012;8.610;2022-11-15T01:12:41;7.90;99.90
25320;DHT22;13256;49.012;8.610;2022-11-15T01:15:27;7.80;99.90
25320;DHT22;13256;49.012;8.610;2022-11-15T01:18:19;7.80;99.90
25320;DHT22;13256;49.012;8.610;2022-11-15T01:21:17;7.80;99.90
25320;DHT22;13256;49.012;8.610;2022-11-15T01:28:31;7.80;99.90
25320;DHT22;13256;49.012;8.610;2022-11-15T01:32:01;7.80;99.90
25320;DHT22;13256;49.012;8.610;2022-11-15T01:35:06;7.80;99.90
25320;DHT22;13256;49.012;8.610;2022-11-15T01:38:00;7.80;99.90
25320;DHT22;13256;49.012;8.610;2022-11-15T01:40:58;7.80;99.90
25320;DHT22;13256;49.012;8.610;2022-11-15T01:43:57;7.90;99.90
25320;DHT22;13256;49.012;8.610;2022-11-15T01:46:59;7.90;99.90
25320;DHT22;13256;49.012;8.610;2022-11-15T01:50:44;7.90;99.90
25320;DHT22;13256;49.012;8.610;2022-11-15T02:04:48;7.90;99.90
25320;DHT22;13256;49.012;8.610;2022-11-15T02:07:36;7.90;99.90
25320;DHT22;13256;49.012;8.610;2022-11-15T02:18:41;7.80;99.90
25320;DHT22;13256;49.012;8.610;2022-11-15T02:30:45;7.80;99.90
25320;DHT22;13256;49.012;8.610;2022-11-15T02:33:53;7.80;99.90
25320;DHT22;13256;49.012;8.610;2022-11-15T02:41:23;7.80;99.90
25320;DHT22;13256;49.012;8.610;2022-11-15T02:44:42;7.80;99.90
25320;DHT22;13256;49.012;8.610;2022-11-15T02:56:17;7.80;99.90
25320;DHT22;13256;49.012;8.610;2022-11-15T03:03:33;7.80;99.90
25320;DHT22;13256;49.012;8.610;2022-11-15T03:10:20;7.90;99.90
25320;DHT22;13256;49.012;8.610;2022-11-15T03:13:57;7.90;99.90
25320;DHT22;13256;49.012;8.610;2022-11-15T03:17:18;7.90;99.90
25320;DHT22;13256;49.012;8.610;2022-11-15T03:20:10;7.90;99.90
25320;DHT22;13256;49.012;8.610;2022-11-15T03:23:12;8.00;99.90
25320;DHT22;13256;49.012;8.610;2022-11-15T03:26:00;8.00;99.90
25320;DHT22;13256;49.012;8.610;2022-11-15T03:29:13;8.00;99.90
25320;DHT22;13256;49.012;8.610;2022-11-15T03:32:51;8.00;99.90
25320;DHT22;13256;49.012;8.610;2022-11-15T03:35:49;8.10;99.90
25320;DHT22;13256;49.012;8.610;2022-11-15T03:38:38;8.10;99.90
25320;DHT22;13256;49.012;8.610;2022-11-15T03:41:46;8.10;99.90
25320;DHT22;13256;49.012;8.610;2022-11-15T03:48:05;8.20;99.90
25320;DHT22;13256;49.012;8.610;2022-11-15T03:50:55;8.20;99.90
25320;DHT22;13256;49.012;8.610;2022-11-15T03:53:42;8.30;99.90
25320;DHT22;13256;49.012;8.610;2022-11-15T03:56:32;8.30;99.90
25320;DHT22;13256;49.012;8.610;2022-11-15T03:59:24;8.30;99.90
25320;DHT22;13256;49.012;8.610;2022-11-15T04:02:10;8.30;99.90
25320;DHT22;13256;49.012;8.610;2022-11-15T04:04:56;8.40;99.90
25320;DHT22;13256;49.012;8.610;2022-11-15T04:08:11;8.40;99.90
25320;DHT22;13256;49.012;8.610;2022-11-15T04:10:59;8.40;99.90
25320;DHT22;13256;49.012;8.610;2022-11-15T04:13:50;8.40;99.90
25320;DHT22;13256;49.012;8.610;2022-11-15T04:16:37;8.40;99.90
25320;DHT22;13256;49.012;8.610;2022-11-15T04:19:40;8.40;99.90
25320;DHT22;13256;49.012;8.610;2022-11-15T04:22:48;8.50;99.90
25320;DHT22;13256;49.012;8.610;2022-11-15T04:26:22;8.50;99.90
25320;DHT22;13256;49.012;8.610;2022-11-15T04:29:11;8.50;99.90
25320;DHT22;13256;49.012;8.610;2022-11-15T04:32:27;8.40;99.90
25320;DHT22;13256;49.012;8.610;2022-11-15T04:35:20;8.50;99.90
25320;DHT22;13256;49.012;8.610;2022-11-15T04:38:11;8.50;99.90
25320;DHT22;13256;49.012;8.610;2022-11-15T04:41:04;8.50;99.90
25320;DHT22;13256;49.012;8.610;2022-11-15T04:55:13;8.50;99.90
25320;DHT22;13256;49.012;8.610;2022-11-15T04:58:09;8.50;99.90
25320;DHT22;13256;49.012;8.610;2022-11-15T05:04:48;8.50;99.90
25320;DHT22;13256;49.012;8.610;2022-11-15T05:08:10;8.50;99.90
25320;DHT22;13256;49.012;8.610;2022-11-15T05:11:01;8.50;99.90
25320;DHT22;13256;49.012;8.610;2022-11-15T05:13:50;8.50;99.90
25320;DHT22;13256;49.012;8.610;2022-11-15T05:25:26;8.50;99.90
25320;DHT22;13256;49.012;8.610;2022-11-15T05:28:12;8.50;99.90
25320;DHT22;13256;49.012;8.610;2022-11-15T05:31:08;8.50;99.90
25320;DHT22;13256;49.012;8.610;2022-11-15T05:34:07;8.50;99.90
25320;DHT22;13256;49.012;8.610;2022-11-15T05:40:27;8.50;99.90
25320;DHT22;13256;49.012;8.610;2022-11-15T05:43:36;8.50;99.90
25320;DHT22;13256;49.012;8.610;2022-11-15T05:50:24;8.50;99.90
25320;DHT22;13256;49.012;8.610;2022-11-15T05:53:14;8.40;99.90
25320;DHT22;13256;49.012;8.610;2022-11-15T05:56:06;8.50;99.90
25320;DHT22;13256;49.012;8.610;2022-11-15T05:58:58;8.40;99.90
25320;DHT22;13256;49.012;8.610;2022-11-15T06:01:49;8.30;99.90
25320;DHT22;13256;49.012;8.610;2022-11-15T06:04:40;8.30;99.90
25320;DHT22;13256;49.012;8.610;2022-11-15T06:07:33;8.30;99.90
25320;DHT22;13256;49.012;8.610;2022-11-15T06:10:21;8.30;99.90
25320;DHT22;13256;49.012;8.610;2022-11-15T06:13:08;8.20;99.90
25320;DHT22;13256;49.012;8.610;2022-11-15T06:15:58;8.20;99.90
25320;DHT22;13256;49.012;8.610;2022-11-15T06:18:43;8.20;99.90
25320;DHT22;13256;49.012;8.610;2022-11-15T06:21:31;8.20;99.90
25320;DHT22;13256;49.012;8.610;2022-11-15T06:24:25;8.20;99.90
25320;DHT22;13256;49.012;8.610;2022-11-15T06:27:12;8.20;99.90
25320;DHT22;13256;49.012;8.610;2022-11-15T06:29:59;8.20;99.90
25320;DHT22;13256;49.012;8.610;2022-11-15T06:32:44;8.20;99.90
25320;DHT22;13256;49.012;8.610;2022-11-15T06:35:33;8.20;99.90
25320;DHT22;13256;49.012;8.610;2022-11-15T06:38:20;8.20;99.90
25320;DHT22;13256;49.012;8.610;2022-11-15T06:41:10;8.20;99.90
25320;DHT22;13256;49.012;8.610;2022-11-15T06:43:56;8.20;99.90
25320;DHT22;13256;49.012;8.610;2022-11-15T06:46:45;8.10;99.90
25320;DHT22;13256;49.012;8.610;2022-11-15T06:49:33;8.20;99.90
25320;DHT22;13256;49.012;8.610;2022-11-15T06:52:38;8.20;99.90
25320;DHT22;13256;49.012;8.610;2022-11-15T06:55:42;8.20;99.90
25320;DHT22;13256;49.012;8.610;2022-11-15T06:58:36;8.20;99.90
25320;DHT22;13256;49.012;8.610;2022-11-15T07:01:53;8.20;99.90
25320;DHT22;13256;49.012;8.610;2022-11-15T07:04:38;8.30;99.90
25320;DHT22;13256;49.012;8.610;2022-11-15T07:07:25;8.30;99.90
25320;DHT22;13256;49.012;8.610;2022-11-15T07:10:13;8.30;99.90
25320;DHT22;13256;49.012;8.610;2022-11-15T07:13:01;8.40;99.90
25320;DHT22;13256;49.012;8.610;2022-11-15T07:16:02;8.50;99.90
25320;DHT22;13256;49.012;8.610;2022-11-15T07:19:08;8.50;99.90
25320;DHT22;13256;49.012;8.610;2022-11-15T07:22:25;8.50;99.90
25320;DHT22;13256;49.012;8.610;2022-11-15T07:25:13;8.60;99.90
25320;DHT22;13256;49.012;8.610;2022-11-15T07:28:28;8.70;99.90
25320;DHT22;13256;49.012;8.610;2022-11-15T07:31:16;8.70;99.90
25320;DHT22;13256;49.012;8.610;2022-11-15T07:40:24;8.80;99.90
25320;DHT22;13256;49.012;8.610;2022-11-15T07:43:39;8.80;99.90
25320;DHT22;13256;49.012;8.610;2022-11-15T07:46:35;8.80;99.90
25320;DHT22;13256;49.012;8.610;2022-11-15T07:49:28;8.80;99.90
25320;DHT22;13256;49.012;8.610;2022-11-15T07:59:44;9.00;99.90
25320;DHT22;13256;49.012;8.610;2022-11-15T08:02:30;9.00;99.90
25320;DHT22;13256;49.012;8.610;2022-11-15T08:05:15;9.10;99.90
25320;DHT22;13256;49.012;8.610;2022-11-15T08:08:01;9.10;99.90
25320;DHT22;13256;49.012;8.610;2022-11-15T08:10:49;9.20;99.90
25320;DHT22;13256;49.012;8.610;2022-11-15T08:13:35;9.20;99.90
25320;DHT22;13256;49.012;8.610;2022-11-15T08:16:20;9.20;99.90
25320;DHT22;13256;49.012;8.610;2022-11-15T08:19:05;9.30;99.90
25320;DHT22;13256;49.012;8.610;2022-11-15T08:21:57;9.30;99.90
25320;DHT22;13256;49.012;8.610;2022-11-15T08:24:56;9.40;99.90
25320;DHT22;13256;49.012;8.610;2022-11-15T08:31:25;9.50;99.90
25320;DHT22;13256;49.012;8.610;2022-11-15T08:34:12;9.50;99.90
25320;DHT22;13256;49.012;8.610;2022-11-15T08:37:31;9.60;99.90
25320;DHT22;13256;49.012;8.610;2022-11-15T08:40:58;9.70;99.90
25320;DHT22;13256;49.012;8.610;2022-11-15T08:44:14;9.70;99.90
25320;DHT22;13256;49.012;8.610;2022-11-15T08:47:06;9.80;99.90
25320;DHT22;13256;49.012;8.610;2022-11-15T08:49:53;9.80;99.90
25320;DHT22;13256;49.012;8.610;2022-11-15T08:52:45;9.90;99.90
25320;DHT22;13256;49.012;8.610;2022-11-15T08:55:40;10.00;99.90
25320;DHT22;13256;49.012;8.610;2022-11-15T08:58:28;10.00;99.90
25320;DHT22;13256;49.012;8.610;2022-11-15T09:01:21;10.10;99.90
25320;DHT22;13256;49.012;8.610;2022-11-15T09:04:09;10.10;99.90
25320;DHT22;13256;49.012;8.610;2022-11-15T09:06:57;10.20;99.90
25320;DHT22;13256;49.012;8.610;2022-11-15T09:09:44;10.20;99.90
25320;DHT22;13256;49.012;8.610;2022-11-15T09:12:30;10.20;99.90
25320;DHT22;13256;49.012;8.610;2022-11-15T09:15:21;10.30;99.90
25320;DHT22;13256;49.012;8.610;2022-11-15T09:18:07;10.30;99.90
25320;DHT22;13256;49.012;8.610;2022-11-15T09:21:20;10.40;99.90
25320;DHT22;13256;49.012;8.610;2022-11-15T09:24:16;10.40;99.90
25320;DHT22;13256;49.012;8.610;2022-11-15T09:27:33;10.50;99.90
25320;DHT22;13256;49.012;8.610;2022-11-15T09:30:24;10.50;99.90
25320;DHT22;13256;49.012;8.610;2022-11-15T09:33:15;10.60;99.90
25320;DHT22;13256;49.012;8.610;2022-11-15T09:36:36;10.60;99.90
25320;DHT22;13256;49.012;8.610;2022-11-15T09:39:22;10.70;99.90
25320;DHT22;13256;49.012;8.610;2022-11-15T09:49:13;10.80;99.90
25320;DHT22;13256;49.012;8.610;2022-11-15T09:58:15;11.00;99.90
25320;DHT22;13256;49.012;8.610;2022-11-15T10:00:47;11.00;99.90
25320;DHT22;13256;49.012;8.610;2022-11-15T10:03:41;11.10;99.90
25320;DHT22;13256;49.012;8.610;2022-11-15T10:06:28;11.10;99.90
25320;DHT22;13256;49.012;8.610;2022-11-15T10:09:06;11.10;99.90
25320;DHT22;13256;49.012;8.610;2022-11-15T10:11:37;11.20;99.90
25320;DHT22;13256;49.012;8.610;2022-11-15T10:20:17;11.30;99.90
25320;DHT22;13256;49.012;8.610;2022-11-15T10:22:45;11.30;99.90
25320;DHT22;13256;49.012;8.610;2022-11-15T10:25:38;11.30;99.90
25320;DHT22;13256;49.012;8.610;2022-11-15T10:28:34;11.40;99.90
25320;DHT22;13256;49.012;8.610;2022-11-15T10:31:29;11.40;99.90
25320;DHT22;13256;49.012;8.610;2022-11-15T10:34:18;11.50;99.90
25320;DHT22;13256;49.012;8.610;2022-11-15T10:36:59;11.50;99.90
25320;DHT22;13256;49.012;8.610;2022-11-15T10:40:05;11.60;99.90
25320;DHT22;13256;49.012;8.610;2022-11-15T10:42:33;11.60;99.90
25320;DHT22;13256;49.012;8.610;2022-11-15T10:45:23;11.70;99.90
25320;DHT22;13256;49.012;8.610;2022-11-15T10:47:50;11.70;99.90
25320;DHT22;13256;49.012;8.610;2022-11-15T10:50:32;11.70;99.90
25320;DHT22;13256;49.012;8.610;2022-11-15T10:53:21;11.70;99.90
25320;DHT22;13256;49.012;8.610;2022-11-15T10:56:22;11.80;99.90
25320;DHT22;13256;49.012;8.610;2022-11-15T10:58:57;11.80;99.90
25320;DHT22;13256;49.012;8.610;2022-11-15T11:01:27;11.80;99.90
25320;DHT22;13256;49.012;8.610;2022-11-15T11:09:38;11.80;99.90
25320;DHT22;13256;49.012;8.610;2022-11-15T11:12:10;11.90;99.90
25320;DHT22;13256;49.012;8.610;2022-11-15T11:14:40;11.90;99.90
25320;DHT22;13256;49.012;8.610;2022-11-15T11:17:51;11.90;99.90
25320;DHT22;13256;49.012;8.610;2022-11-15T11:29:00;12.10;99.90
25320;DHT22;13256;49.012;8.610;2022-11-15T11:34:57;12.20;99.90
25320;DHT22;13256;49.012;8.610;2022-11-15T11:38:00;12.20;99.90
25320;DHT22;13256;49.012;8.610;2022-11-15T11:47:03;12.30;99.90
25320;DHT22;13256;49.012;8.610;2022-11-15T11:50:27;12.30;99.90
25320;DHT22;13256;49.012;8.610;2022-11-15T11:53:19;12.30;99.90
25320;DHT22;13256;49.012;8.610;2022-11-15T11:56:03;12.30;99.90
25320;DHT22;13256;49.012;8.610;2022-11-15T11:58:40;12.40;99.90
25320;DHT22;13256;49.012;8.610;2022-11-15T12:01:29;12.40;99.90
25320;DHT22;13256;49.012;8.610;2022-11-15T12:10:46;12.40;99.90
25320;DHT22;13256;49.012;8.610;2022-11-15T12:13:25;12.40;99.90
25320;DHT22;13256;49.012;8.610;2022-11-15T12:16:17;12.40;99.90
25320;DHT22;13256;49.012;8.610;2022-11-15T12:18:56;12.40;99.90
25320;DHT22;13256;49.012;8.610;2022-11-15T12:28:03;12.40;99.90
25320;DHT22;13256;49.012;8.610;2022-11-15T12:33:54;12.50;99.90
25320;DHT22;13256;49.012;8.610;2022-11-15T12:36:45;12.50;99.90
25320;DHT22;13256;49.012;8.610;2022-11-15T12:39:15;12.50;99.90
25320;DHT22;13256;49.012;8.610;2022-11-15T12:47:24;12.80;99.90
25320;DHT22;13256;49.012;8.610;2022-11-15T12:49:54;12.90;99.90
25320;DHT22;13256;49.012;8.610;2022-11-15T12:52:28;13.00;99.90
25320;DHT22;13256;49.012;8.610;2022-11-15T12:55:33;13.20;99.90
25320;DHT22;13256;49.012;8.610;2022-11-15T13:04:21;13.60;99.90
25320;DHT22;13256;49.012;8.610;2022-11-15T13:06:56;13.70;99.90
25320;DHT22;13256;49.012;8.610;2022-11-15T13:17:43;14.00;99.90
25320;DHT22;13256;49.012;8.610;2022-11-15T13:20:32;14.10;99.90
25320;DHT22;13256;49.012;8.610;2022-11-15T13:23:18;14.30;99.90
25320;DHT22;13256;49.012;8.610;2022-11-15T13:26:17;14.60;99.90
25320;DHT22;13256;49.012;8.610;2022-11-15T13:28:52;14.70;99.90
25320;DHT22;13256;49.012;8.610;2022-11-15T13:34:32;14.90;99.90
25320;DHT22;13256;49.012;8.610;2022-11-15T13:39:50;15.00;99.90
25320;DHT22;13256;49.012;8.610;2022-11-15T13:42:21;15.00;99.90
25320;DHT22;13256;49.012;8.610;2022-11-15T13:45:12;15.10;99.90
25320;DHT22;13256;49.012;8.610;2022-11-15T13:48:08;15.10;99.90
25320;DHT22;13256;49.012;8.610;2022-11-15T13:50:38;15.00;99.90
25320;DHT22;13256;49.012;8.610;2022-11-15T13:53:12;15.00;99.90
25320;DHT22;13256;49.012;8.610;2022-11-15T13:55:45;14.90;99.90
25320;DHT22;13256;49.012;8.610;2022-11-15T13:58:22;14.80;99.90
25320;DHT22;13256;49.012;8.610;2022-11-15T14:01:03;14.80;99.90
25320;DHT22;13256;49.012;8.610;2022-11-15T14:03:46;14.70;99.90
25320;DHT22;13256;49.012;8.610;2022-11-15T14:26:04;14.40;99.90
25320;DHT22;13256;49.012;8.610;2022-11-15T14:29:39;14.40;99.90
25320;DHT22;13256;49.012;8.610;2022-11-15T14:32:20;14.30;99.90
25320;DHT22;13256;49.012;8.610;2022-11-15T14:34:59;14.30;99.90
25320;DHT22;13256;49.012;8.610;2022-11-15T14:37:34;14.20;99.90
25320;DHT22;13256;49.012;8.610;2022-11-15T14:40:31;14.20;99.90
25320;DHT22;13256;49.012;8.610;2022-11-15T14:43:13;14.20;99.90
25320;DHT22;13256;49.012;8.610;2022-11-15T14:49:12;14.10;99.90
25320;DHT22;13256;49.012;8.610;2022-11-15T14:51:43;14.10;99.90
25320;DHT22;13256;49.012;8.610;2022-11-15T14:54:12;14.10;99.90
25320;DHT22;13256;49.012;8.610;2022-11-15T14:56:41;14.10;99.90
25320;DHT22;13256;49.012;8.610;2022-11-15T15:06:09;14.10;99.90
25320;DHT22;13256;49.012;8.610;2022-11-15T15:08:47;14.10;99.90
25320;DHT22;13256;49.012;8.610;2022-11-15T15:18:08;13.90;99.90
25320;DHT22;13256;49.012;8.610;2022-11-15T15:21:34;13.90;99.90
25320;DHT22;13256;49.012;8.610;2022-11-15T15:24:15;13.90;99.90
25320;DHT22;13256;49.012;8.610;2022-11-15T15:26:56;13.90;99.90
25320;DHT22;13256;49.012;8.610;2022-11-15T15:29:34;13.90;99.90
25320;DHT22;13256;49.012;8.610;2022-11-15T15:32:06;14.00;99.90
25320;DHT22;13256;49.012;8.610;2022-11-15T15:34:48;14.00;99.90
25320;DHT22;13256;49.012;8.610;2022-11-15T15:39:54;13.90;99.90
25320;DHT22;13256;49.012;8.610;2022-11-15T15:42:25;13.90;99.90
25320;DHT22;13256;49.012;8.610;2022-11-15T15:44:58;13.90;99.90
25320;DHT22;13256;49.012;8.610;2022-11-15T15:47:39;13.90;99.90
25320;DHT22;13256;49.012;8.610;2022-11-15T15:50:33;13.90;99.90
25320;DHT22;13256;49.012;8.610;2022-11-15T15:53:12;13.90;99.90
25320;DHT22;13256;49.012;8.610;2022-11-15T15:55:39;13.90;99.90
25320;DHT22;13256;49.012;8.610;2022-11-15T15:58:08;13.80;99.90
25320;DHT22;13256;49.012;8.610;2022-11-15T16:00:42;13.80;99.90
25320;DHT22;13256;49.012;8.610;2022-11-15T16:03:11;13.80;99.90
25320;DHT22;13256;49.012;8.610;2022-11-15T16:05:38;13.90;99.90
25320;DHT22;13256;49.012;8.610;2022-11-15T16:08:22;13.90;99.90
25320;DHT22;13256;49.012;8.610;2022-11-15T16:14:31;13.80;99.90
25320;DHT22;13256;49.012;8.610;2022-11-15T16:17:26;13.80;99.90
25320;DHT22;13256;49.012;8.610;2022-11-15T16:20:06;13.80;99.90
25320;DHT22;13256;49.012;8.610;2022-11-15T16:22:33;13.80;99.90
25320;DHT22;13256;49.012;8.610;2022-11-15T16:25:00;13.70;99.90
25320;DHT22;13256;49.012;8.610;2022-11-15T16:27:54;13.70;99.90
25320;DHT22;13256;49.012;8.610;2022-11-15T16:30:22;13.70;99.90
25320;DHT22;13256;49.012;8.610;2022-11-15T16:32:50;13.70;99.90
25320;DHT22;13256;49.012;8.610;2022-11-15T16:35:21;13.70;99.90
25320;DHT22;13256;49.012;8.610;2022-11-15T16:37:52;13.60;99.90
25320;DHT22;13256;49.012;8.610;2022-11-15T16:40:28;13.60;99.90
25320;DHT22;13256;49.012;8.610;2022-11-15T16:42:59;13.60;99.90
25320;DHT22;13256;49.012;8.610;2022-11-15T16:45:34;13.50;99.90
25320;DHT22;13256;49.012;8.610;2022-11-15T16:54:13;13.40;99.90
25320;DHT22;13256;49.012;8.610;2022-11-15T16:56:46;13.30;99.90
25320;DHT22;13256;49.012;8.610;2022-11-15T16:59:16;13.30;99.90
25320;DHT22;13256;49.012;8.610;2022-11-15T17:01:45;13.30;99.90
25320;DHT22;13256;49.012;8.610;2022-11-15T17:04:21;13.20;99.90
25320;DHT22;13256;49.012;8.610;2022-11-15T17:06:48;13.20;99.90
25320;DHT22;13256;49.012;8.610;2022-11-15T17:09:43;13.10;99.90
25320;DHT22;13256;49.012;8.610;2022-11-15T17:12:38;13.10;99.90
25320;DHT22;13256;49.012;8.610;2022-11-15T17:18:11;13.10;99.90
25320;DHT22;13256;49.012;8.610;2022-11-15T17:20:48;13.00;99.90
25320;DHT22;13256;49.012;8.610;2022-11-15T17:23:18;13.10;99.90
25320;DHT22;13256;49.012;8.610;2022-11-15T17:28:44;13.10;99.90
25320;DHT22;13256;49.012;8.610;2022-11-15T17:31:15;13.10;99.90
25320;DHT22;13256;49.012;8.610;2022-11-15T17:37:06;13.20;99.90
25320;DHT22;13256;49.012;8.610;2022-11-15T17:51:11;13.10;99.90
25320;DHT22;13256;49.012;8.610;2022-11-15T18:00:04;13.10;99.90
25320;DHT22;13256;49.012;8.610;2022-11-15T18:02:32;13.20;99.90
25320;DHT22;13256;49.012;8.610;2022-11-15T18:16:39;13.10;99.90
25320;DHT22;13256;49.012;8.610;2022-11-15T18:19:09;13.10;99.90
25320;DHT22;13256;49.012;8.610;2022-11-15T18:21:46;13.10;99.90
25320;DHT22;13256;49.012;8.610;2022-11-15T18:24:31;13.10;99.90
25320;DHT22;13256;49.012;8.610;2022-11-15T18:27:12;13.00;99.90
25320;DHT22;13256;49.012;8.610;2022-11-15T18:29:39;13.00;99.90
25320;DHT22;13256;49.012;8.610;2022-11-15T18:32:06;13.00;99.90
25320;DHT22;13256;49.012;8.610;2022-11-15T18:34:38;13.00;99.90
25320;DHT22;13256;49.012;8.610;2022-11-15T18:37:08;13.00;99.90
25320;DHT22;13256;49.012;8.610;2022-11-15T18:39:35;13.00;99.90
25320;DHT22;13256;49.012;8.610;2022-11-15T18:42:03;13.00;99.90
25320;DHT22;13256;49.012;8.610;2022-11-15T18:44:31;13.00;99.90
25320;DHT22;13256;49.012;8.610;2022-11-15T18:47:01;13.00;99.90
25320;DHT22;13256;49.012;8.610;2022-11-15T18:49:34;13.00;99.90
25320;DHT22;13256;49.012;8.610;2022-11-15T18:52:01;13.00;99.90
25320;DHT22;13256;49.012;8.610;2022-11-15T18:54:28;12.90;99.90
25320;DHT22;13256;49.012;8.610;2022-11-15T18:56:58;12.90;99.90
25320;DHT22;13256;49.012;8.610;2022-11-15T18:59:30;12.80;99.90
25320;DHT22;13256;49.012;8.610;2022-11-15T19:01:57;12.80;99.90
25320;DHT22;13256;49.012;8.610;2022-11-15T19:04:27;12.80;99.90
25320;DHT22;13256;49.012;8.610;2022-11-15T19:06:56;12.70;99.90
25320;DHT22;13256;49.012;8.610;2022-11-15T19:09:28;12.70;99.90
25320;DHT22;13256;49.012;8.610;2022-11-15T19:12:01;12.70;99.90
25320;DHT22;13256;49.012;8.610;2022-11-15T19:14:28;12.60;99.90
25320;DHT22;13256;49.012;8.610;2022-11-15T19:16:57;12.60;99.90
25320;DHT22;13256;49.012;8.610;2022-11-15T19:19:27;12.60;99.90
25320;DHT22;13256;49.012;8.610;2022-11-15T19:21:54;12.50;99.90
25320;DHT22;13256;49.012;8.610;2022-11-15T19:24:23;12.50;99.90
25320;DHT22;13256;49.012;8.610;2022-11-15T19:26:54;12.50;99.90
25320;DHT22;13256;49.012;8.610;2022-11-15T19:29:23;12.40;99.90
25320;DHT22;13256;49.012;8.610;2022-11-15T19:31:50;12.40;99.90
25320;DHT22;13256;49.012;8.610;2022-11-15T19:34:16;12.40;99.90
25320;DHT22;13256;49.012;8.610;2022-11-15T19:36:45;12.30;99.90
25320;DHT22;13256;49.012;8.610;2022-11-15T19:39:16;12.30;99.90
25320;DHT22;13256;49.012;8.610;2022-11-15T19:41:44;12.30;99.90
25320;DHT22;13256;49.012;8.610;2022-11-15T19:44:12;12.30;99.90
25320;DHT22;13256;49.012;8.610;2022-11-15T19:46:44;12.20;99.90
25320;DHT22;13256;49.012;8.610;2022-11-15T19:49:15;12.20;99.90
25320;DHT22;13256;49.012;8.610;2022-11-15T19:51:44;12.20;99.90
25320;DHT22;13256;49.012;8.610;2022-11-15T19:54:26;12.20;99.90
25320;DHT22;13256;49.012;8.610;2022-11-15T19:56:55;12.10;99.90
25320;DHT22;13256;49.012;8.610;2022-11-15T20:02:19;12.10;99.90
25320;DHT22;13256;49.012;8.610;2022-11-15T20:07:56;11.90;99.90
25320;DHT22;13256;49.012;8.610;2022-11-15T20:10:28;11.90;99.90
25320;DHT22;13256;49.012;8.610;2022-11-15T20:31:17;11.70;99.90
25320;DHT22;13256;49.012;8.610;2022-11-15T20:36:56;11.60;99.90
25320;DHT22;13256;49.012;8.610;2022-11-15T20:39:27;11.60;99.90
25320;DHT22;13256;49.012;8.610;2022-11-15T20:41:55;11.60;99.90
25320;DHT22;13256;49.012;8.610;2022-11-15T20:44:27;11.60;99.90
25320;DHT22;13256;49.012;8.610;2022-11-15T20:52:47;11.50;99.90
25320;DHT22;13256;49.012;8.610;2022-11-15T21:04:20;11.50;99.90
25320;DHT22;13256;49.012;8.610;2022-11-15T21:09:48;11.50;99.90
25320;DHT22;13256;49.012;8.610;2022-11-15T21:24:07;11.50;99.90
25320;DHT22;13256;49.012;8.610;2022-11-15T21:30:17;11.50;99.90
25320;DHT22;13256;49.012;8.610;2022-11-15T21:32:45;11.50;99.90
25320;DHT22;13256;49.012;8.610;2022-11-15T21:46:57;11.50;99.90
25320;DHT22;13256;49.012;8.610;2022-11-15T21:49:58;11.50;99.90
25320;DHT22;13256;49.012;8.610;2022-11-15T21:52:42;11.40;99.90
25320;DHT22;13256;49.012;8.610;2022-11-15T21:58:21;11.50;99.90
25320;DHT22;13256;49.012;8.610;2022-11-15T22:04:19;11.50;99.90
25320;DHT22;13256;49.012;8.610;2022-11-15T22:24:27;11.30;99.90
25320;DHT22;13256;49.012;8.610;2022-11-15T22:33:04;11.30;99.90
25320;DHT22;13256;49.012;8.610;2022-11-15T22:50:12;11.30;99.90
25320;DHT22;13256;49.012;8.610;2022-11-15T23:01:24;11.30;99.90
25320;DHT22;13256;49.012;8.610;2022-11-15T23:22:14;11.10;99.90
25320;DHT22;13256;49.012;8.610;2022-11-15T23:37:12;11.00;99.90
25320;DHT22;13256;49.012;8.610;2022-11-15T23:53:51;11.00;99.90
